Time;durP1;ratioP1;P1;durP2;ratioP2;P2;SDS_P1;SDS_P2;PMS_P1;PMS_P2;Temp;Humidity;BMP_temperature;BMP_pressure;BME280_temperature;BME280_humidity;BME280_pressure;Samples;Min_cycle;Max_cycle;Signal;HPM_P1;HPM_P2
2021/07/16 00:01:01;;;;;;;31.30;17.50;;;;;;;22.42;67.76;98582.66;125735;1096;102956;-71
2021/07/16 00:03:29;;;;;;;29.93;17.53;;;;;;;22.41;67.76;98571.00;125634;1095;103008;-71
2021/07/16 00:06:02;;;;;;;31.70;17.00;;;;;;;22.41;67.48;98564.73;125664;1096;102948;-72
2021/07/16 00:08:32;;;;;;;25.63;16.97;;;;;;;22.42;68.12;98571.81;125644;1096;102913;-71
2021/07/16 00:11:01;;;;;;;29.07;17.83;;;;;;;22.42;67.87;98569.11;125705;1096;102910;-71
2021/07/16 00:13:29;;;;;;;28.63;17.80;;;;;;;22.41;67.82;98562.02;125700;1095;103019;-68
2021/07/16 00:15:58;;;;;;;31.63;18.97;;;;;;;22.40;67.48;98547.65;125579;1094;103028;-70
2021/07/16 00:18:27;;;;;;;34.03;17.37;;;;;;;22.36;67.68;98553.66;126749;1094;100797;-68
2021/07/16 00:20:55;;;;;;;29.10;18.00;;;;;;;22.33;67.63;98565.73;125640;1094;103062;-69
2021/07/16 00:23:31;;;;;;;30.65;17.85;;;;;;;22.28;67.74;98577.16;125642;1094;102911;-68
2021/07/16 00:26:00;;;;;;;27.60;17.83;;;;;;;22.25;67.92;98590.28;125681;1095;102916;-70
2021/07/16 00:28:28;;;;;;;34.77;16.97;;;;;;;22.22;68.07;98593.38;125690;1094;102994;-69
2021/07/16 00:30:56;;;;;;;28.57;16.37;;;;;;;22.17;67.94;98593.99;125661;1096;103070;-69
2021/07/16 00:33:25;;;;;;;29.00;15.97;;;;;;;22.11;67.79;98582.06;125665;1096;103003;-69
2021/07/16 00:35:58;;;;;;;31.23;15.13;;;;;;;22.06;67.67;98576.40;125641;1094;103345;-70
2021/07/16 00:38:27;;;;;;;31.13;15.63;;;;;;;22.04;67.70;98564.92;125706;1095;102943;-68
2021/07/16 00:41:00;;;;;;;36.63;16.27;;;;;;;22.04;67.63;98558.69;125603;1095;103066;-68
2021/07/16 00:43:28;;;;;;;28.90;15.57;;;;;;;22.02;68.13;98564.28;125684;1096;102916;-68
2021/07/16 00:46:01;;;;;;;26.43;15.63;;;;;;;22.00;67.84;98563.67;125597;1094;102983;-69
2021/07/16 00:48:29;;;;;;;29.63;15.33;;;;;;;21.95;67.82;98555.31;125587;1095;102935;-68
2021/07/16 00:50:58;;;;;;;25.73;14.93;;;;;;;21.93;67.82;98570.91;125640;1095;102932;-68
2021/07/16 00:53:27;;;;;;;25.20;13.63;;;;;;;21.91;67.72;98573.80;125734;1094;102934;-69
2021/07/16 00:55:57;;;;;;;26.17;14.00;;;;;;;21.90;68.32;98574.83;125635;1094;102934;-68
2021/07/16 00:58:26;;;;;;;28.97;14.13;;;;;;;21.89;68.14;98583.98;126681;1095;103042;-69
2021/07/16 01:00:54;;;;;;;28.03;13.83;;;;;;;21.87;67.99;98594.17;125575;1095;102943;-68
2021/07/16 01:03:27;;;;;;;28.98;13.88;;;;;;;21.89;68.16;98577.75;125603;1095;102916;-69
2021/07/16 01:05:56;;;;;;;26.27;13.07;;;;;;;21.90;68.02;98571.30;125558;1094;102917;-69
2021/07/16 01:08:25;;;;;;;25.27;13.67;;;;;;;21.92;68.02;98574.66;126084;1094;102913;-68
2021/07/16 01:10:59;;;;;;;26.97;12.90;;;;;;;21.92;68.02;98574.66;125633;1094;102919;-68
2021/07/16 01:13:29;;;;;;;25.23;13.13;;;;;;;21.92;67.83;98564.64;125551;1094;102958;-69
2021/07/16 01:15:57;;;;;;;31.37;14.30;;;;;;;21.92;68.05;98571.95;125674;1095;103009;-69
2021/07/16 01:18:30;;;;;;;25.35;13.23;;;;;;;21.88;67.71;98567.96;125660;1095;102911;-69
2021/07/16 01:20:59;;;;;;;26.23;13.70;;;;;;;21.83;67.93;98563.97;125579;1094;103060;-69
2021/07/16 01:23:31;;;;;;;25.80;13.47;;;;;;;21.84;68.27;98567.50;125796;1095;103004;-69
2021/07/16 01:26:05;;;;;;;24.43;12.33;;;;;;;21.84;68.30;98579.18;125577;1095;102933;-70
2021/07/16 01:28:42;;;;;;;25.20;13.47;;;;;;;21.86;68.19;98587.94;125659;1096;103001;-68
2021/07/16 01:31:11;;;;;;;27.77;14.47;;;;;;;21.89;68.15;98607.53;125642;1095;103001;-68
2021/07/16 01:33:43;;;;;;;26.47;14.40;;;;;;;21.88;67.98;98616.69;125547;1095;102949;-67
2021/07/16 01:36:11;;;;;;;26.63;14.50;;;;;;;21.87;67.91;98613.13;125638;1095;103364;-69
2021/07/16 01:38:42;;;;;;;27.63;13.17;;;;;;;21.88;68.53;98608.56;125733;1096;103059;-72
2021/07/16 01:41:11;;;;;;;28.50;14.70;;;;;;;21.89;67.91;98602.12;125665;1096;102997;-68
2021/07/16 01:43:40;;;;;;;24.23;14.70;;;;;;;21.91;68.22;98600.88;125695;1096;102923;-69
2021/07/16 01:46:08;;;;;;;24.70;14.43;;;;;;;21.92;68.01;98604.44;125634;1095;102938;-69
2021/07/16 01:48:37;;;;;;;23.83;13.70;;;;;;;21.91;68.41;98605.47;125619;1095;102919;-68
2021/07/16 01:51:05;;;;;;;28.73;14.17;;;;;;;21.92;68.53;98626.09;125691;1096;102919;-69
2021/07/16 01:53:35;;;;;;;27.10;13.90;;;;;;;21.92;68.18;98626.92;125684;1096;102916;-71
2021/07/16 01:56:05;;;;;;;28.80;14.60;;;;;;;21.88;68.36;98625.63;125616;1095;103000;-70
2021/07/16 01:58:34;;;;;;;23.90;13.73;;;;;;;21.85;68.39;98635.00;125481;1094;103185;-70
2021/07/16 02:01:12;;;;;;;25.90;15.60;;;;;;;21.85;68.32;98634.14;125601;1093;102902;-70
2021/07/16 02:03:46;;;;;;;31.63;15.33;;;;;;;21.82;68.10;98638.09;125656;1095;103403;-69
2021/07/16 02:06:20;;;;;;;30.93;14.60;;;;;;;21.82;68.22;98638.09;125610;1096;102935;-68
2021/07/16 02:08:48;;;;;;;27.00;14.50;;;;;;;21.79;68.17;98641.19;125686;1095;103064;-69
2021/07/16 02:11:21;;;;;;;26.53;14.90;;;;;;;21.79;68.34;98638.48;125582;1096;103089;-70
2021/07/16 02:13:53;;;;;;;25.13;14.03;;;;;;;21.82;68.49;98645.36;125638;1095;103021;-69
2021/07/16 02:16:27;;;;;;;29.50;14.43;;;;;;;21.76;67.95;98643.45;125681;1096;103383;-69
2021/07/16 02:18:55;;;;;;;31.30;15.17;;;;;;;21.73;68.08;98638.43;125650;1096;103068;-68
2021/07/16 02:21:26;;;;;;;29.27;14.97;;;;;;;21.74;68.26;98623.87;125630;1096;103015;-68
2021/07/16 02:23:54;;;;;;;25.60;15.15;;;;;;;21.74;68.35;98629.28;125690;1093;102947;-69
2021/07/16 02:26:23;;;;;;;26.67;14.87;;;;;;;21.71;68.42;98619.66;125673;1096;102946;-69
2021/07/16 02:28:51;;;;;;;25.10;14.10;;;;;;;21.71;68.34;98622.38;125661;1092;102942;-69
2021/07/16 02:31:24;;;;;;;29.33;15.53;;;;;;;21.71;68.25;98615.11;125670;1092;102948;-68
2021/07/16 02:33:52;;;;;;;31.83;15.68;;;;;;;21.73;68.58;98627.61;125662;1093;102938;-68
2021/07/16 02:36:21;;;;;;;29.27;15.23;;;;;;;21.69;68.19;98616.31;125675;1093;103345;-70
2021/07/16 02:38:53;;;;;;;26.45;14.50;;;;;;;21.68;68.71;98611.94;125634;1093;102991;-70
2021/07/16 02:41:21;;;;;;;27.33;15.23;;;;;;;21.68;68.27;98611.94;125632;1093;103425;-69
2021/07/16 02:43:50;;;;;;;27.60;14.73;;;;;;;21.69;68.43;98608.20;125562;1093;102913;-68
2021/07/16 02:46:18;;;;;;;31.43;14.70;;;;;;;21.69;68.90;98619.88;125553;1093;103425;-68
2021/07/16 02:48:47;;;;;;;31.97;15.47;;;;;;;21.67;68.39;98621.08;125559;1091;103039;-69
2021/07/16 02:51:20;;;;;;;27.57;15.50;;;;;;;21.66;68.56;98630.23;125705;1092;102966;-69
2021/07/16 02:53:48;;;;;;;30.30;15.13;;;;;;;21.66;68.61;98628.38;125643;1093;102936;-71
2021/07/16 02:56:17;;;;;;;29.53;15.30;;;;;;;21.64;68.77;98629.59;125718;1093;103003;-69
2021/07/16 02:58:45;;;;;;;26.40;14.53;;;;;;;21.64;68.67;98622.32;125629;1093;103027;-69
2021/07/16 03:01:17;;;;;;;25.53;14.13;;;;;;;21.63;68.69;98628.77;125674;1093;103011;-68
2021/07/16 03:03:50;;;;;;;26.30;13.95;;;;;;;21.61;68.65;98636.20;125691;1093;102920;-70
2021/07/16 03:06:18;;;;;;;25.37;15.07;;;;;;;21.61;68.30;98643.47;125661;1091;103413;-69
2021/07/16 03:08:47;;;;;;;26.97;14.43;;;;;;;21.61;68.83;98646.17;125738;1093;102991;-69
2021/07/16 03:11:15;;;;;;;28.63;15.43;;;;;;;21.59;68.79;98654.50;125637;1093;102940;-69
2021/07/16 03:13:43;;;;;;;32.07;15.53;;;;;;;21.62;68.65;98650.59;125663;1093;103065;-69
2021/07/16 03:16:12;;;;;;;30.50;13.90;;;;;;;21.64;68.91;98662.06;125707;1093;102913;-69
2021/07/16 03:18:42;;;;;;;32.57;15.40;;;;;;;21.59;68.53;98664.51;125659;1093;102919;-69
2021/07/16 03:21:10;;;;;;;26.90;15.10;;;;;;;21.39;68.50;98659.72;125706;1092;102919;-69
2021/07/16 03:23:38;;;;;;;26.30;15.23;;;;;;;21.29;68.96;98659.18;125662;1093;103386;-69
2021/07/16 03:26:06;;;;;;;30.50;14.97;;;;;;;21.29;69.13;98653.77;125636;1093;102994;-68
2021/07/16 03:28:35;;;;;;;25.47;14.87;;;;;;;21.30;68.98;98661.71;125714;1093;103062;-68
2021/07/16 03:31:03;;;;;;;26.20;15.27;;;;;;;21.32;68.97;98665.06;125676;1093;103031;-68
2021/07/16 03:33:31;;;;;;;24.37;14.20;;;;;;;21.32;69.20;98659.66;125706;1093;102971;-68
2021/07/16 03:36:00;;;;;;;26.00;14.87;;;;;;;21.32;69.25;98665.06;125700;1093;102913;-68
2021/07/16 03:38:28;;;;;;;27.70;14.30;;;;;;;21.32;69.02;98651.54;125626;1093;102947;-68
2021/07/16 03:41:01;;;;;;;29.30;15.17;;;;;;;21.33;69.34;98655.06;125663;1093;103031;-69
2021/07/16 03:43:30;;;;;;;29.05;16.50;;;;;;;21.32;69.28;98661.50;125660;1093;103161;-70
2021/07/16 03:46:01;;;;;;;27.83;14.30;;;;;;;21.30;69.21;98656.30;125679;1093;103009;-70
2021/07/16 03:48:33;;;;;;;28.98;15.18;;;;;;;21.31;69.37;98660.69;125695;1092;103026;-70
2021/07/16 03:51:06;;;;;;;27.93;14.90;;;;;;;21.33;69.32;98668.59;125611;1093;103076;-68
2021/07/16 03:53:35;;;;;;;29.03;15.20;;;;;;;21.35;69.44;98672.80;125656;1093;103514;-69
2021/07/16 03:56:05;;;;;;;27.77;15.40;;;;;;;21.36;69.41;98671.77;125580;1093;103015;-69
2021/07/16 03:58:33;;;;;;;25.30;14.97;;;;;;;21.37;68.77;98680.70;125612;1092;103003;-70
2021/07/16 04:01:04;;;;;;;28.17;15.17;;;;;;;21.39;69.28;98686.77;125618;1092;102935;-68
2021/07/16 04:03:36;;;;;;;31.67;13.93;;;;;;;21.38;69.10;98685.09;125562;1095;103064;-71
2021/07/16 04:06:05;;;;;;;31.05;14.00;;;;;;;21.36;69.37;98690.70;125647;1095;102903;-69
2021/07/16 04:08:39;;;;;;;28.83;14.10;;;;;;;21.36;69.26;98681.73;125685;1095;103341;-68
2021/07/16 04:11:07;;;;;;;25.43;13.33;;;;;;;21.37;69.46;98673.45;125517;1095;102963;-69
2021/07/16 04:13:36;;;;;;;29.63;13.63;;;;;;;21.38;69.60;98669.71;125654;1094;102992;-68
2021/07/16 04:16:07;;;;;;;25.67;12.27;;;;;;;21.41;69.51;98671.19;126245;1094;103012;-69
2021/07/16 04:18:35;;;;;;;26.47;13.10;;;;;;;21.44;69.33;98673.51;125755;1095;102923;-68
2021/07/16 04:21:04;;;;;;;31.40;14.03;;;;;;;21.47;69.34;98675.83;125654;1096;103031;-69
2021/07/16 04:23:32;;;;;;;31.33;13.90;;;;;;;21.50;69.64;98677.30;125648;1095;103034;-69
2021/07/16 04:26:00;;;;;;;26.85;12.85;;;;;;;21.54;69.32;98684.00;125625;1095;103018;-72
2021/07/16 04:28:29;;;;;;;29.87;13.10;;;;;;;21.58;69.36;98685.30;125652;1095;103135;-69
2021/07/16 04:30:57;;;;;;;29.47;13.47;;;;;;;21.63;69.57;98679.33;125660;1095;101720;-68
2021/07/16 04:33:26;;;;;;;28.10;11.93;;;;;;;21.63;69.57;98682.89;125498;1095;102949;-68
2021/07/16 04:35:56;;;;;;;25.80;12.27;;;;;;;21.66;69.68;98692.48;125862;1094;103163;-67
2021/07/16 04:38:24;;;;;;;23.90;11.77;;;;;;;21.68;69.29;98691.27;126001;1096;102915;-69
2021/07/16 04:40:52;;;;;;;25.95;11.75;;;;;;;21.73;69.29;98684.45;125643;1096;103007;-70
2021/07/16 04:43:21;;;;;;;23.73;10.70;;;;;;;21.79;69.26;98683.67;125723;1096;102942;-68
2021/07/16 04:45:49;;;;;;;25.30;11.63;;;;;;;21.81;69.28;98681.58;125609;1095;103052;-69
2021/07/16 04:48:20;;;;;;;31.40;13.27;;;;;;;21.84;69.38;98694.73;126103;1094;102913;-68
2021/07/16 04:50:48;;;;;;;22.73;11.83;;;;;;;21.88;69.54;98690.61;125821;1094;102945;-69
2021/07/16 04:53:17;;;;;;;26.63;12.30;;;;;;;21.91;69.48;98698.34;125594;1094;103153;-68
2021/07/16 04:55:47;;;;;;;27.03;12.33;;;;;;;21.94;69.61;98707.97;125623;1096;102919;-71
2021/07/16 04:58:15;;;;;;;25.80;11.60;;;;;;;21.97;69.73;98713.81;125626;1095;102917;-68
2021/07/16 05:00:44;;;;;;;25.03;11.47;;;;;;;22.02;69.72;98721.34;125878;1096;102916;-69
2021/07/16 05:03:12;;;;;;;23.50;12.40;;;;;;;22.06;69.20;98725.34;125699;1095;102998;-70
2021/07/16 05:05:41;;;;;;;28.97;13.53;;;;;;;22.09;69.30;98733.08;125768;1095;103004;-70
2021/07/16 05:08:10;;;;;;;23.50;11.60;;;;;;;22.13;69.57;98733.55;125703;1094;102942;-68
2021/07/16 05:10:38;;;;;;;27.13;12.97;;;;;;;22.18;69.28;98731.09;125625;1095;102916;-69
2021/07/16 05:13:06;;;;;;;23.37;11.47;;;;;;;22.20;69.53;98734.45;125567;1094;103009;-67
2021/07/16 05:15:35;;;;;;;25.77;11.33;;;;;;;22.24;69.15;98737.59;125700;1096;103630;-66
2021/07/16 05:18:07;;;;;;;26.48;11.65;;;;;;;22.28;69.51;98738.88;126346;1094;102942;-68
2021/07/16 05:20:36;;;;;;;21.97;9.77;;;;;;;22.35;69.30;98742.48;125730;1094;102956;-67
2021/07/16 05:23:09;;;;;;;20.80;10.30;;;;;;;22.34;69.50;98739.95;125578;1094;103188;-68
2021/07/16 05:25:39;;;;;;;20.97;10.87;;;;;;;22.37;69.38;98736.85;125644;1096;103038;-68
2021/07/16 05:28:10;;;;;;;22.75;10.05;;;;;;;22.41;69.08;98736.28;125629;1096;102914;-70
2021/07/16 05:30:38;;;;;;;22.63;9.43;;;;;;;22.44;69.39;98733.18;125614;1095;103074;-72
2021/07/16 05:33:07;;;;;;;20.00;10.00;;;;;;;22.49;69.00;98734.47;125678;1095;102923;-71
2021/07/16 05:35:41;;;;;;;20.43;8.70;;;;;;;22.54;68.62;98722.02;125627;1096;103094;-69
2021/07/16 05:38:10;;;;;;;19.73;9.13;;;;;;;22.62;69.31;98725.61;126233;1096;102908;-70
2021/07/16 05:40:41;;;;;;;18.67;8.17;;;;;;;22.64;69.10;98721.66;125663;1095;102968;-68
2021/07/16 05:43:12;;;;;;;15.60;7.30;;;;;;;22.68;69.09;98712.09;125630;1094;103072;-69
2021/07/16 05:45:42;;;;;;;15.50;7.17;;;;;;;22.73;68.54;98717.76;125672;1095;103033;-68
2021/07/16 05:48:13;;;;;;;17.05;7.55;;;;;;;22.78;68.77;98711.72;125515;1096;103104;-69
2021/07/16 05:50:44;;;;;;;16.53;7.00;;;;;;;22.83;68.57;98717.39;125664;1095;102994;-71
2021/07/16 05:53:17;;;;;;;13.10;6.87;;;;;;;22.89;68.87;98713.88;125620;1096;103164;-68
2021/07/16 05:55:46;;;;;;;13.93;6.68;;;;;;;22.98;68.54;98702.88;125639;1094;102920;-69
2021/07/16 05:58:14;;;;;;;14.20;6.93;;;;;;;23.01;69.07;98700.58;125653;1095;103101;-68
2021/07/16 06:00:48;;;;;;;16.63;6.77;;;;;;;23.06;68.65;98697.25;125610;1096;102939;-67
2021/07/16 06:03:18;;;;;;;18.37;7.47;;;;;;;23.12;68.27;98699.16;126578;1093;102207;-70
2021/07/16 06:05:47;;;;;;;21.73;8.13;;;;;;;23.20;68.12;98698.17;125847;1093;103233;-72
2021/07/16 06:08:22;;;;;;;16.60;8.40;;;;;;;23.31;68.43;98715.77;125637;1095;103025;-72
2021/07/16 06:10:50;;;;;;;18.50;7.97;;;;;;;23.40;68.53;98714.55;125704;1093;102916;-70
2021/07/16 06:13:19;;;;;;;21.47;8.23;;;;;;;23.50;67.94;98722.30;125701;1093;102916;-69
2021/07/16 06:15:47;;;;;;;15.63;7.73;;;;;;;23.60;68.06;98716.47;125679;1093;102945;-69
2021/07/16 06:18:22;;;;;;;20.08;8.25;;;;;;;23.69;68.35;98708.95;125679;1092;103000;-70
2021/07/16 06:20:51;;;;;;;18.30;7.80;;;;;;;23.79;67.68;98710.25;125621;1092;103665;-68
2021/07/16 06:23:19;;;;;;;21.80;8.07;;;;;;;23.91;68.17;98712.34;125706;1096;103087;-71
2021/07/16 06:25:47;;;;;;;15.57;7.60;;;;;;;24.03;67.42;98716.14;125664;1093;102920;-72
2021/07/16 06:28:16;;;;;;;16.33;7.30;;;;;;;24.22;67.75;98711.76;125734;1092;103370;-71
2021/07/16 06:30:44;;;;;;;17.13;7.33;;;;;;;24.44;67.28;98721.57;125705;1093;102988;-70
2021/07/16 06:33:12;;;;;;;19.00;7.80;;;;;;;24.66;66.82;98717.55;125659;1092;103144;-68
2021/07/16 06:35:46;;;;;;;18.80;8.10;;;;;;;24.85;66.72;98712.33;125696;1093;102941;-70
2021/07/16 06:38:19;;;;;;;22.77;8.30;;;;;;;24.89;67.24;98719.02;125658;1093;102919;-72
2021/07/16 06:40:47;;;;;;;19.07;8.90;;;;;;;24.94;67.04;98719.20;125722;1093;102953;-71
2021/07/16 06:43:16;;;;;;;17.65;8.85;;;;;;;25.00;67.02;98720.23;125714;1092;102904;-70
2021/07/16 06:45:48;;;;;;;21.93;8.70;;;;;;;25.07;67.13;98718.33;125646;1095;102924;-73
2021/07/16 06:48:17;;;;;;;20.83;9.20;;;;;;;25.18;67.26;98721.43;125682;1093;102997;-69
2021/07/16 06:50:45;;;;;;;19.33;9.40;;;;;;;25.25;67.01;98725.79;125668;1093;102929;-68
2021/07/16 06:53:13;;;;;;;19.80;9.80;;;;;;;25.31;66.71;98715.09;125706;1092;102933;-70
2021/07/16 06:55:42;;;;;;;20.05;8.65;;;;;;;25.38;66.83;98722.16;125699;1093;102939;-69
2021/07/16 06:58:10;;;;;;;17.97;8.77;;;;;;;25.39;66.35;98726.55;125677;1093;102995;-70
2021/07/16 07:00:44;;;;;;;18.33;9.10;;;;;;;25.52;66.03;98711.25;125671;1091;102930;-72
2021/07/16 07:03:12;;;;;;;18.03;8.87;;;;;;;26.14;65.12;98718.80;125644;1096;103387;-70
2021/07/16 07:06:04;;;;;;;20.43;8.53;;;;;;;27.00;64.58;98712.76;125639;1096;103012;-70
2021/07/16 07:08:32;;;;;;;15.90;8.30;;;;;;;27.95;64.36;98710.46;125650;1096;103012;-72
2021/07/16 07:11:10;;;;;;;15.07;7.53;;;;;;;28.77;63.85;98717.09;125652;1094;103036;-71
2021/07/16 07:13:38;;;;;;;16.47;7.47;;;;;;;29.71;64.23;98712.43;125681;1096;103017;-70
2021/07/16 07:16:15;;;;;;;15.00;7.53;;;;;;;30.56;63.54;98717.14;125652;1095;103065;-66
2021/07/16 07:18:51;;;;;;;15.77;7.03;;;;;;;31.59;64.08;98703.91;125685;1096;103067;-67
2021/07/16 07:21:20;;;;;;;15.60;7.57;;;;;;;32.72;63.89;98707.89;125700;1095;102929;-69
2021/07/16 07:23:52;;;;;;;12.70;6.97;;;;;;;33.73;63.43;98707.74;126475;1095;103209;-69
2021/07/16 07:26:23;;;;;;;15.87;7.17;;;;;;;34.24;62.35;98704.20;125961;1095;103013;-69
2021/07/16 07:28:52;;;;;;;14.50;7.07;;;;;;;35.06;62.75;98699.63;125611;1095;103012;-69
2021/07/16 07:31:20;;;;;;;13.40;7.05;;;;;;;36.04;62.09;98692.74;125681;1095;102888;-69
2021/07/16 07:33:49;;;;;;;15.47;7.03;;;;;;;36.86;61.89;98695.83;125582;1096;102940;-70
2021/07/16 07:36:18;;;;;;;16.87;6.93;;;;;;;37.34;60.37;98698.54;125986;1094;102953;-68
2021/07/16 07:38:46;;;;;;;12.97;6.67;;;;;;;37.44;59.78;98694.85;125693;1095;103068;-70
2021/07/16 07:41:19;;;;;;;16.07;7.90;;;;;;;37.61;59.53;98699.03;125759;1096;103028;-69
2021/07/16 07:43:53;;;;;;;13.90;6.73;;;;;;;37.82;58.59;98694.83;125706;1095;103001;-70
2021/07/16 07:46:21;;;;;;;16.50;7.30;;;;;;;37.87;58.17;98699.45;125677;1094;102935;-68
2021/07/16 07:48:51;;;;;;;18.25;7.35;;;;;;;38.42;58.07;98703.59;125609;1094;102933;-69
2021/07/16 07:51:19;;;;;;;13.90;6.47;;;;;;;38.79;56.96;98712.05;125671;1096;103065;-69
2021/07/16 07:53:47;;;;;;;15.30;7.03;;;;;;;38.93;56.80;98710.13;125663;1094;103029;-71
2021/07/16 07:56:35;;;;;;;15.57;6.90;;;;;;;39.00;55.59;98718.05;125664;1096;102923;-67
2021/07/16 07:59:08;;;;;;;13.70;6.88;;;;;;;38.85;54.79;98721.94;125656;1095;102907;-68
2021/07/16 08:01:36;;;;;;;17.57;7.00;;;;;;;38.95;54.84;98721.77;125698;1093;103009;-70
2021/07/16 08:04:09;;;;;;;13.60;6.67;;;;;;;39.69;55.25;98725.48;125662;1093;103500;-68
2021/07/16 08:06:42;;;;;;;23.60;7.03;;;;;;;40.46;54.36;98727.55;125646;1093;103500;-69
2021/07/16 08:09:11;;;;;;;12.40;6.80;;;;;;;40.80;53.07;98726.09;125655;1093;103093;-67
2021/07/16 08:11:39;;;;;;;16.10;6.97;;;;;;;40.89;52.76;98729.73;125681;1093;102966;-68
2021/07/16 08:14:12;;;;;;;14.60;6.97;;;;;;;41.18;51.88;98721.95;125681;1093;103265;-69
2021/07/16 08:16:46;;;;;;;16.67;7.23;;;;;;;41.74;51.79;98726.98;125654;1093;102929;-68
2021/07/16 08:19:19;;;;;;;18.00;7.07;;;;;;;42.27;50.77;98724.97;125630;1093;102940;-67
2021/07/16 08:21:52;;;;;;;16.75;7.28;;;;;;;42.55;50.57;98731.00;125656;1092;102947;-71
2021/07/16 08:24:26;;;;;;;17.33;7.20;;;;;;;42.64;49.82;98730.97;125654;1093;103061;-66
2021/07/16 08:26:54;;;;;;;15.47;7.13;;;;;;;41.70;49.30;98724.03;125670;1093;103012;-70
2021/07/16 08:29:24;;;;;;;15.83;7.23;;;;;;;40.55;48.14;98728.42;125681;1093;103064;-67
2021/07/16 08:31:55;;;;;;;15.93;8.00;;;;;;;39.34;47.66;98732.68;125625;1093;103010;-67
2021/07/16 08:34:32;;;;;;;17.73;7.80;;;;;;;38.17;46.89;98736.19;125683;1092;103007;-67
2021/07/16 08:37:01;;;;;;;14.57;7.63;;;;;;;37.45;46.71;98742.80;125606;1092;102948;-66
2021/07/16 08:39:29;;;;;;;17.00;7.83;;;;;;;36.79;46.03;98746.88;125646;1093;103088;-67
2021/07/16 08:42:08;;;;;;;18.77;8.27;;;;;;;36.02;46.02;98744.78;125674;1093;102995;-69
2021/07/16 08:44:43;;;;;;;16.43;8.40;;;;;;;35.70;46.12;98748.82;125675;1093;103064;-68
2021/07/16 08:47:11;;;;;;;15.45;7.80;;;;;;;35.31;45.24;98742.11;125705;1093;102946;-67
2021/07/16 08:49:43;;;;;;;17.33;7.90;;;;;;;34.92;45.55;98751.06;125693;1093;102908;-68
2021/07/16 08:52:16;;;;;;;14.80;8.50;;;;;;;34.65;45.33;98738.41;125626;1093;103085;-69
2021/07/16 08:54:49;;;;;;;16.67;8.87;;;;;;;34.37;44.94;98746.15;125670;1093;103012;-69
2021/07/16 08:57:20;;;;;;;15.53;8.73;;;;;;;34.03;44.50;98752.22;125628;1093;103345;-67
2021/07/16 08:59:51;;;;;;;17.27;9.33;;;;;;;33.66;44.63;98746.63;125642;1094;103000;-70
2021/07/16 09:02:25;;;;;;;18.57;8.60;;;;;;;33.61;44.66;98746.60;125765;1093;103011;-69
2021/07/16 09:05:04;;;;;;;16.97;8.37;;;;;;;33.48;44.66;98745.20;125670;1093;103090;-66
2021/07/16 09:07:47;;;;;;;17.57;9.20;;;;;;;33.32;44.56;98743.44;125619;1093;103071;-67
2021/07/16 09:10:21;;;;;;;16.57;10.03;;;;;;;33.29;44.35;98746.73;125742;1093;103448;-68
2021/07/16 09:13:01;;;;;;;18.40;9.57;;;;;;;33.34;44.59;98746.77;125656;1092;103160;-67
2021/07/16 09:15:29;;;;;;;18.53;8.70;;;;;;;33.29;44.42;98744.83;125665;1093;102945;-68
2021/07/16 09:18:18;;;;;;;19.40;9.43;;;;;;;33.15;43.96;98740.90;125589;1094;103180;-69
2021/07/16 09:20:49;;;;;;;19.50;8.80;;;;;;;32.99;43.79;98743.60;125670;1093;103091;-69
2021/07/16 09:23:26;;;;;;;18.77;8.63;;;;;;;32.96;43.77;98741.38;125639;1093;103006;-69
2021/07/16 09:26:13;;;;;;;16.27;8.70;;;;;;;33.08;43.67;98741.97;125666;1093;103005;-67
2021/07/16 09:28:48;;;;;;;18.60;8.67;;;;;;;33.29;44.05;98741.23;125652;1093;103534;-68
2021/07/16 09:31:25;;;;;;;16.70;8.73;;;;;;;33.34;43.61;98735.73;125671;1093;103156;-73
2021/07/16 09:34:01;;;;;;;18.70;9.55;;;;;;;33.49;43.66;98726.71;125680;1093;103008;-67
2021/07/16 09:36:42;;;;;;;18.53;8.83;;;;;;;33.64;43.96;98731.44;125608;1092;103027;-68
2021/07/16 09:39:24;;;;;;;16.77;8.10;;;;;;;33.78;43.94;98726.24;125653;1093;102939;-68
2021/07/16 09:41:57;;;;;;;18.47;8.33;;;;;;;34.14;43.78;98729.06;125634;1093;102972;-69
2021/07/16 09:44:44;;;;;;;16.97;8.37;;;;;;;34.31;43.45;98728.77;125668;1093;103009;-68
2021/07/16 09:47:17;;;;;;;18.73;8.30;;;;;;;34.54;43.86;98719.12;125696;1093;103077;-68
2021/07/16 09:50:12;;;;;;;18.43;8.63;;;;;;;34.59;43.52;98715.50;125657;1093;103070;-68
2021/07/16 09:52:40;;;;;;;16.37;8.57;;;;;;;34.71;43.05;98720.72;125711;1093;102935;-69
2021/07/16 09:55:18;;;;;;;17.47;8.00;;;;;;;34.95;43.80;98725.64;125600;1093;103091;-69
2021/07/16 09:57:55;;;;;;;17.20;8.53;;;;;;;34.96;43.23;98724.56;126631;1092;100750;-68
2021/07/16 10:00:29;;;;;;;15.77;7.87;;;;;;;34.81;42.97;98730.94;125663;1093;102935;-68
2021/07/16 10:03:01;;;;;;;17.40;8.57;;;;;;;34.78;43.20;98724.02;125659;1096;102975;-68
2021/07/16 10:05:31;;;;;;;20.07;8.80;;;;;;;34.81;42.66;98725.41;125827;1096;102994;-71
2021/07/16 10:08:02;;;;;;;18.90;9.43;;;;;;;34.73;43.05;98721.27;125663;1096;101867;-70
2021/07/16 10:10:34;;;;;;;14.23;8.03;;;;;;;34.64;43.06;98718.26;125708;1095;103023;-69
2021/07/16 10:13:04;;;;;;;18.10;9.10;;;;;;;34.48;43.26;98728.51;125555;1095;102942;-69
2021/07/16 10:15:35;;;;;;;16.77;9.10;;;;;;;34.15;42.26;98727.95;125836;1095;103026;-69
2021/07/16 10:18:06;;;;;;;15.67;8.60;;;;;;;33.80;42.17;98724.85;125593;1094;102939;-68
2021/07/16 10:20:40;;;;;;;15.27;8.67;;;;;;;33.46;42.64;98724.50;125804;1096;102917;-69
2021/07/16 10:23:09;;;;;;;19.43;9.50;;;;;;;33.20;42.33;98711.46;125608;1096;103009;-73
2021/07/16 10:25:40;;;;;;;16.80;8.80;;;;;;;33.05;42.45;98717.70;125568;1096;103018;-68
2021/07/16 10:28:08;;;;;;;16.37;8.83;;;;;;;32.80;42.61;98721.97;125634;1096;102939;-71
2021/07/16 10:30:40;;;;;;;19.73;8.90;;;;;;;32.54;42.17;98723.73;125684;1095;103537;-70
2021/07/16 10:33:10;;;;;;;;;;;;;;;32.28;42.09;98722.69;125752;1095;102945;-69
2021/07/16 10:35:40;;;;;;;19.47;10.13;;;;;;;32.03;42.39;98722.22;125594;1096;103070;-68
2021/07/16 10:38:31;;;;;;;15.73;8.90;;;;;;;31.88;42.22;98725.66;126056;1095;103001;-67
2021/07/16 10:41:02;;;;;;;17.80;9.47;;;;;;;31.68;41.84;98726.27;125595;1095;103058;-67
2021/07/16 10:43:31;;;;;;;17.67;9.17;;;;;;;31.51;41.94;98731.04;125643;1094;102993;-68
2021/07/16 10:46:22;;;;;;;16.55;9.20;;;;;;;31.35;42.19;98730.04;125580;1095;103069;-68
2021/07/16 10:48:53;;;;;;;17.57;9.27;;;;;;;31.22;42.45;98731.23;125630;1094;103023;-69
2021/07/16 10:51:31;;;;;;;17.20;8.97;;;;;;;31.06;42.34;98732.93;125668;1097;102921;-69
2021/07/16 10:54:04;;;;;;;19.20;8.70;;;;;;;31.00;42.68;98726.55;125607;1094;103057;-69
2021/07/16 10:56:47;;;;;;;17.47;9.73;;;;;;;30.98;42.59;98724.05;125631;1095;103050;-68
2021/07/16 10:59:43;;;;;;;19.30;10.23;;;;;;;30.86;42.71;98726.91;125599;1096;102958;-68
2021/07/16 11:02:38;;;;;;;19.27;9.43;;;;;;;30.85;42.64;98725.25;125630;1096;103010;-69
2021/07/16 11:05:32;;;;;;;18.00;9.20;;;;;;;30.79;42.50;98728.19;125646;1095;102945;-68
2021/07/16 11:08:06;;;;;;;18.73;9.20;;;;;;;30.68;42.68;98725.29;125614;1096;103461;-68
2021/07/16 11:10:56;;;;;;;17.97;8.73;;;;;;;30.65;42.68;98727.72;125956;1094;102968;-68
2021/07/16 11:13:50;;;;;;;17.33;9.53;;;;;;;30.55;43.14;98731.94;125592;1094;104185;-69
2021/07/16 11:16:25;;;;;;;16.87;9.17;;;;;;;30.43;42.82;98733.94;125598;1096;102898;-69
2021/07/16 11:19:08;;;;;;;23.17;9.60;;;;;;;30.40;43.17;98726.20;125627;1095;103001;-68
2021/07/16 11:21:41;;;;;;;18.70;9.47;;;;;;;30.38;43.29;98725.63;125601;1094;102939;-68
2021/07/16 11:24:18;;;;;;;22.10;9.20;;;;;;;30.41;43.82;98728.72;125642;1095;102913;-67
2021/07/16 11:26:54;;;;;;;19.43;9.93;;;;;;;30.38;43.22;98728.36;125675;1096;102961;-68